KJST Airport Information

Runway Information
Runway 05 Length 4386 ft width 100 ft
Elevation 2270 ft Threshold 0 ft Heading 39
Runway 23 Length 4386 ft Width 100 ft
Elevation 2278 ft Threshold 0 ft Heading 219
Runway 10 Length 3700 ft width 100 ft
Elevation 2268 ft Threshold 0 ft Heading 87
Runway 28 Length 3700 ft Width 100 ft
Elevation 2280 ft Threshold 0 ft Heading 267
Runway 15 Length 7003 ft width 150 ft
Elevation 2270 ft Threshold 0 ft Heading 144
Runway 33 Length 7003 ft Width 150 ft
Elevation 2260 ft Threshold 0 ft Heading 324
Airport Frequencies
Type ATIS Name ATIS Frequency 118.325 MHZ
Type CNTR Name CLEVELAND Frequency 121.2 MHZ
Type CTAF Name CTAF Frequency 125.75 MHZ
Type GND Name GND Frequency 121.6 MHZ
Type OPS Name KEYSTONE O Frequency 36.5 MHZ
Type RDO Name ALTOONA RD Frequency 122.65 MHZ
Type TWR Name TWR Frequency 125.75 MHZ
Type UNIC Name UNICOM Frequency 122.95 MHZ
Airport Navaids
Type VORTAC Name Johnstown Frequency 113000 KHZ
Airport Weather Information & NOTAM
ADDS - METARS form results

(0034 UTC 23 September 2021)
Data provider http://aviationweather.gov/metar/data/
 
METAR text: KJST 230031Z AUTO 20010G18KT 3SM +RA BR SCT006 BKN030 OVC041 17/15 A2982 RMK AO2 PK WND 23027/0004 WSHFT 2341 P0022 T01670150
Conditions at: KJST (JOHNSTOWN , PA, US) observed 0031 UTC 23 September 2021
Temperature: 16.7°C (62°F)
Dewpoint: 15.0°C (59°F) [RH = 90%]
Pressure (altimeter): 29.82 inches Hg (1009.9 mb)
Winds: from the SSW (200 degrees) at 12 MPH (10 knots; 5.1 m/s)
gusting to 21 MPH (18 knots; 9.3 m/s)
Visibility: 3 miles ( 5 km)
Ceiling: 3000 feet AGL
Clouds: scattered clouds at 600 feet AGL
broken clouds at 3000 feet AGL
overcast cloud deck at 4100 feet AGL
Weather: +RA BR  (heavy rain, mist)

METAR text: KJST 230024Z AUTO 21011G18KT 2 1/2SM +RA BR FEW005 BKN027 OVC041 17/15 A2982 RMK AO2 PK WND 23027/0004 WSHFT 2341 P0019 T01670150
Conditions at: KJST (JOHNSTOWN , PA, US) observed 0024 UTC 23 September 2021
Temperature: 16.7°C (62°F)
Dewpoint: 15.0°C (59°F) [RH = 90%]
Pressure (altimeter): 29.82 inches Hg (1009.9 mb)
Winds: from the SSW (210 degrees) at 13 MPH (11 knots; 5.7 m/s)
gusting to 21 MPH (18 knots; 9.3 m/s)
Visibility: 2.50 miles (4.02 km)
Ceiling: 2700 feet AGL
Clouds: few clouds at 500 feet AGL
broken clouds at 2700 feet AGL
overcast cloud deck at 4100 feet AGL
Weather: +RA BR  (heavy rain, mist)

METAR text: KJST 230015Z AUTO 23011G26KT 3SM +RA BR FEW007 BKN032 OVC041 17/15 A2981 RMK AO2 PK WND 23027/0004 WSHFT 2341 P0012 T01670150
Conditions at: KJST (JOHNSTOWN , PA, US) observed 0015 UTC 23 September 2021
Temperature: 16.7°C (62°F)
Dewpoint: 15.0°C (59°F) [RH = 90%]
Pressure (altimeter): 29.81 inches Hg (1009.6 mb)
Winds: from the SW (230 degrees) at 13 MPH (11 knots; 5.7 m/s)
gusting to 30 MPH (26 knots; 13.4 m/s)
Visibility: 3 miles ( 5 km)
Ceiling: 3200 feet AGL
Clouds: few clouds at 700 feet AGL
broken clouds at 3200 feet AGL
overcast cloud deck at 4100 feet AGL
Weather: +RA BR  (heavy rain, mist)

METAR text: KJST 230004Z AUTO 23020G27KT 2 1/2SM +RA BR SCT009 BKN017 OVC029 17/15 A2981 RMK AO2 PK WND 23027/0004 WSHFT 2341 P0007 T01670150
Conditions at: KJST (JOHNSTOWN , PA, US) observed 0004 UTC 23 September 2021
Temperature: 16.7°C (62°F)
Dewpoint: 15.0°C (59°F) [RH = 90%]
Pressure (altimeter): 29.81 inches Hg (1009.6 mb)
Winds: from the SW (230 degrees) at 23 MPH (20 knots; 10.3 m/s)
gusting to 31 MPH (27 knots; 13.9 m/s)
Visibility: 2.50 miles (4.02 km)
Ceiling: 1700 feet AGL
Clouds: scattered clouds at 900 feet AGL
broken clouds at 1700 feet AGL
overcast cloud deck at 2900 feet AGL
Weather: +RA BR  (heavy rain, mist)

METAR text: KJST 222356Z AUTO 23019G27KT 1 3/4SM +RA BR FEW007 BKN016 OVC024 17/15 A2980 RMK AO2 PK WND 23027/2355 WSHFT 2341 P0000 T01720150
Conditions at: KJST (JOHNSTOWN , PA, US) observed 2356 UTC 22 September 2021
Temperature: 17.2°C (63°F)
Dewpoint: 15.0°C (59°F) [RH = 87%]
Pressure (altimeter): 29.80 inches Hg (1009.2 mb)
Winds: from the SW (230 degrees) at 22 MPH (19 knots; 9.8 m/s)
gusting to 31 MPH (27 knots; 13.9 m/s)
Visibility: 1.75 miles (2.82 km)
Ceiling: 1600 feet AGL
Clouds: few clouds at 700 feet AGL
broken clouds at 1600 feet AGL
overcast cloud deck at 2400 feet AGL
Weather: +RA BR  (heavy rain, mist)

METAR text: KJST 222354Z AUTO 22019G27KT 1 1/2SM +RA BR SCT010 BKN016 OVC024 17/15 A2979 RMK AO2 PK WND 15031/2303 WSHFT 2338 RAE2259B34 SLP079 P0015 60019 T01720150 10217 20172 53007
Conditions at: KJST (JOHNSTOWN , PA, US) observed 2354 UTC 22 September 2021
Temperature: 17.2°C (63°F)
Dewpoint: 15.0°C (59°F) [RH = 87%]
Pressure (altimeter): 29.79 inches Hg (1008.9 mb)
[Sea-level pressure: 1007.9 mb]
Winds: from the SW (220 degrees) at 22 MPH (19 knots; 9.8 m/s)
gusting to 31 MPH (27 knots; 13.9 m/s)
Visibility: 1.50 miles (2.41 km)
Ceiling: 1600 feet AGL
Clouds: scattered clouds at 1000 feet AGL
broken clouds at 1600 feet AGL
overcast cloud deck at 2400 feet AGL
Weather: +RA BR  (heavy rain, mist)

METAR text: KJST 222352Z AUTO 22018G27KT 1 3/4SM +RA BKN010 BKN016 OVC024 18/15 A2980 RMK AO2 PK WND 15031/2303 WSHFT 2338 RAE2259B34 PRESRR P0013
Conditions at: KJST (JOHNSTOWN , PA, US) observed 2352 UTC 22 September 2021
Temperature: 18.0°C (64°F)
Dewpoint: 15.0°C (59°F) [RH = 83%]
Pressure (altimeter): 29.80 inches Hg (1009.2 mb)
Winds: from the SW (220 degrees) at 21 MPH (18 knots; 9.3 m/s)
gusting to 31 MPH (27 knots; 13.9 m/s)
Visibility: 1.75 miles (2.82 km)
Ceiling: 1000 feet AGL
Clouds: broken clouds at 1000 feet AGL
broken clouds at 1600 feet AGL
overcast cloud deck at 2400 feet AGL
Weather: +RA  (heavy rain)

METAR text: KJST 222347Z AUTO 22019G27KT 6SM -RA BR FEW007 BKN010 OVC017 20/18 A2979 RMK AO2 PK WND 15031/2303 RAE2259B34 PRESRR P0002 T02000178
Conditions at: KJST (JOHNSTOWN , PA, US) observed 2347 UTC 22 September 2021
Temperature: 20.0°C (68°F)
Dewpoint: 17.8°C (64°F) [RH = 87%]
Pressure (altimeter): 29.79 inches Hg (1008.9 mb)
Winds: from the SW (220 degrees) at 22 MPH (19 knots; 9.8 m/s)
gusting to 31 MPH (27 knots; 13.9 m/s)
Visibility: 6 miles (10 km)
Ceiling: 1000 feet AGL
Clouds: few clouds at 700 feet AGL
broken clouds at 1000 feet AGL
overcast cloud deck at 1700 feet AGL
Weather: -RA BR  (light rain, mist)

Forecast for: KJST (JOHNSTOWN , PA, US)
Text: KJST 222352Z 2300/2324 17010G20KT 5SM -RA BKN007 OVC012 WS020/16042KT
Forecast period: 0000 to 0500 UTC 23 September 2021
Forecast type: FROM: standard forecast or significant change
Winds: from the S (170 degrees) at 12 MPH (10 knots; 5.1 m/s)
gusting to 23 MPH (20 knots; 10.3 m/s)
Visibility: 5 miles (8 km)
Ceiling: 700 feet AGL
Clouds: broken clouds at 700 feet AGL
overcast cloud deck at 1200 feet AGL
Wind Shear: at 2000 feet ( 610 m) AGL, from the SSE (160 degrees) at 48 MPH (42 knots; 21.8 m/s)
Weather: -RA  (light rain)
Text: FM230500 20012KT 4SM -RA BR OVC015
Forecast period: 0500 to 0800 UTC 23 September 2021
Forecast type: FROM: standard forecast or significant change
Winds: from the SSW (200 degrees) at 14 MPH (12 knots; 6.2 m/s)
Visibility: 4 miles (6 km)
Ceiling: 1500 feet AGL
Clouds: overcast cloud deck at 1500 feet AGL
Weather: -RA BR  (light rain, mist)
Text: FM230800 23010KT P6SM OVC025
Forecast period: 0800 to 1400 UTC 23 September 2021
Forecast type: FROM: standard forecast or significant change
Winds: from the SW (230 degrees) at 12 MPH (10 knots; 5.1 m/s)
Visibility: 6 or more miles (10+ km)
Ceiling: 2500 feet AGL
Clouds: overcast cloud deck at 2500 feet AGL
Weather: no significant weather forecast for this period
Text: FM231400 24011G18KT P6SM BKN035
Forecast period: 1400 UTC 23 September 2021 to 0000 UTC 24 September 2021
Forecast type: FROM: standard forecast or significant change
Winds: from the WSW (240 degrees) at 13 MPH (11 knots; 5.7 m/s)
gusting to 21 MPH (18 knots; 9.3 m/s)
Visibility: 6 or more miles (10+ km)
Ceiling: 3500 feet AGL
Clouds: broken clouds at 3500 feet AGL
Weather: no significant weather forecast for this period